Time;durP1;ratioP1;P1;durP2;ratioP2;P2;SDS_P1;SDS_P2;PMS_P1;PMS_P2;Temp;Humidity;BMP_temperature;BMP_pressure;BME280_temperature;BME280_humidity;BME280_pressure;Samples;Min_cycle;Max_cycle;Signal;HPM_P1;HPM_P2
2023/05/08 00:00:37;;;;;;;0.32;0.30;;;14.40;99.90;;;;;;5043094;28;20037;-67
2023/05/08 00:03:03;;;;;;;0.77;0.75;;;14.30;99.90;;;;;;5031342;28;20084;-67
2023/05/08 00:05:29;;;;;;;0.10;0.10;;;14.40;99.90;;;;;;5038168;28;20049;-67
2023/05/08 00:08:00;;;;;;;0.45;0.40;;;14.40;99.90;;;;;;5045009;28;20051;-67
2023/05/08 00:10:26;;;;;;;0.17;0.17;;;14.30;99.90;;;;;;5043478;28;20053;-67
2023/05/08 00:12:52;;;;;;;0.25;0.25;;;14.30;99.90;;;;;;5031498;28;20133;-67
2023/05/08 00:15:18;;;;;;;2.15;0.85;;;14.20;99.90;;;;;;5037242;28;20128;-67
2023/05/08 00:17:43;;;;;;;0.63;0.63;;;14.20;99.90;;;;;;5032834;28;20392;-67
2023/05/08 00:20:10;;;;;;;0.05;0.05;;;14.20;99.90;;;;;;5029730;28;20092;-67
2023/05/08 00:22:36;;;;;;;0.17;0.17;;;14.10;99.90;;;;;;5031941;28;20037;-67
2023/05/08 00:25:03;;;;;;;1.40;0.70;;;14.10;99.90;;;;;;5034458;28;20792;-67
2023/05/08 00:27:28;;;;;;;1.52;1.42;;;14.10;99.90;;;;;;5028529;28;20155;-67
2023/05/08 00:29:54;;;;;;;0.85;0.60;;;14.10;99.90;;;;;;5035996;28;20080;-67
2023/05/08 00:32:19;;;;;;;0.30;0.30;;;14.00;99.90;;;;;;5029309;28;20045;-67
2023/05/08 00:34:45;;;;;;;0.70;0.70;;;14.00;99.90;;;;;;5037170;28;20055;-67
2023/05/08 00:37:10;;;;;;;5.32;1.13;;;13.90;99.90;;;;;;5028935;28;20049;-67
2023/05/08 00:39:36;;;;;;;0.20;0.20;;;14.00;99.90;;;;;;5036150;28;20072;-67
2023/05/08 00:42:02;;;;;;;0.17;0.17;;;13.90;99.90;;;;;;5035895;28;20064;-67
2023/05/08 00:44:27;;;;;;;0.32;0.32;;;14.00;99.90;;;;;;5040864;28;20444;-67
2023/05/08 00:46:53;;;;;;;0.52;0.52;;;14.00;99.90;;;;;;5037091;28;20439;-67
2023/05/08 00:49:19;;;;;;;0.13;0.13;;;13.90;99.90;;;;;;5045429;28;20093;-67
2023/05/08 00:51:46;;;;;;;0.65;0.63;;;13.80;99.90;;;;;;5028188;28;20061;-67
2023/05/08 00:54:13;;;;;;;0.00;0.00;;;13.80;99.90;;;;;;5030608;28;20049;-67
2023/05/08 00:56:39;;;;;;;0.30;0.30;;;13.80;99.90;;;;;;5046314;28;20119;-67
2023/05/08 00:59:10;;;;;;;0.75;0.55;;;13.90;99.90;;;;;;5048348;28;20124;-67
2023/05/08 01:01:36;;;;;;;0.88;0.57;;;13.80;99.90;;;;;;5040407;28;20110;-67
2023/05/08 01:04:03;;;;;;;0.63;0.63;;;13.90;99.90;;;;;;5056547;28;20132;-67
2023/05/08 01:06:28;;;;;;;0.60;0.60;;;13.80;99.90;;;;;;5040388;28;20084;-67
2023/05/08 01:08:54;;;;;;;0.95;0.82;;;13.70;99.90;;;;;;5032181;28;20041;-67
2023/05/08 01:11:27;;;;;;;0.50;0.50;;;13.70;99.90;;;;;;5035581;28;20032;-67
2023/05/08 01:14:17;;;;;;;0.30;0.28;;;13.70;99.90;;;;;;5033489;28;20399;-65
2023/05/08 01:17:01;;;;;;;0.43;0.38;;;13.80;99.90;;;;;;5035132;28;20396;-67
2023/05/08 01:19:59;;;;;;;0.70;0.63;;;13.70;99.90;;;;;;5031486;28;20814;-67
2023/05/08 01:22:58;;;;;;;0.00;0.00;;;13.60;99.90;;;;;;5041337;28;20395;-67
2023/05/08 01:25:24;;;;;;;0.38;0.38;;;13.60;99.90;;;;;;5040356;28;20111;-67
2023/05/08 01:28:16;;;;;;;0.38;0.38;;;13.60;99.90;;;;;;5027665;28;20053;-67
2023/05/08 01:30:57;;;;;;;0.73;0.52;;;13.50;99.90;;;;;;5034834;28;20042;-67
2023/05/08 01:33:32;;;;;;;0.10;0.10;;;13.50;99.90;;;;;;5039760;28;20044;-67
2023/05/08 01:36:32;;;;;;;1.63;0.73;;;13.50;99.90;;;;;;5037123;28;20470;-67
2023/05/08 01:39:04;;;;;;;0.60;0.60;;;13.50;99.90;;;;;;5041234;28;20049;-66
2023/05/08 01:41:33;;;;;;;0.10;0.10;;;13.50;99.90;;;;;;5030457;28;20557;-67
2023/05/08 01:44:18;;;;;;;0.45;0.45;;;13.50;99.90;;;;;;5034900;28;20049;-67
2023/05/08 01:46:48;;;;;;;1.27;0.85;;;13.40;99.90;;;;;;5029583;28;20404;-67
2023/05/08 01:49:38;;;;;;;0.30;0.30;;;13.50;99.90;;;;;;5032596;28;20046;-66
2023/05/08 01:52:34;;;;;;;0.03;0.03;;;13.40;99.90;;;;;;5037706;28;20508;-67
2023/05/08 01:55:07;;;;;;;0.75;0.75;;;13.40;99.90;;;;;;5030788;28;20382;-67
2023/05/08 01:57:38;;;;;;;1.65;1.45;;;13.40;99.90;;;;;;5030767;28;20041;-67
2023/05/08 02:00:16;;;;;;;1.58;1.17;;;13.40;99.90;;;;;;5035221;28;20055;-67
2023/05/08 02:02:43;;;;;;;10.13;2.72;;;13.30;99.90;;;;;;5034520;28;20048;-67
2023/05/08 02:05:09;;;;;;;0.40;0.40;;;13.30;99.90;;;;;;5032741;28;20099;-66
2023/05/08 02:07:38;;;;;;;0.90;0.77;;;13.30;99.90;;;;;;5038275;28;20097;-66
2023/05/08 02:10:06;;;;;;;0.32;0.32;;;13.20;99.90;;;;;;5038677;28;20079;-66
2023/05/08 02:12:35;;;;;;;2.58;0.52;;;13.20;99.90;;;;;;5032487;28;20038;-66
2023/05/08 02:15:02;;;;;;;0.10;0.10;;;13.20;99.90;;;;;;5031503;28;20037;-66
2023/05/08 02:17:30;;;;;;;0.70;0.70;;;13.20;99.90;;;;;;5035368;28;20033;-66
2023/05/08 02:19:57;;;;;;;0.90;0.90;;;13.20;99.90;;;;;;5031950;28;20711;-66
2023/05/08 02:22:25;;;;;;;0.20;0.20;;;13.20;99.90;;;;;;5031286;28;20073;-66
2023/05/08 02:24:54;;;;;;;0.60;0.60;;;13.20;99.90;;;;;;5030041;28;20084;-66
2023/05/08 02:27:26;;;;;;;0.47;0.47;;;13.20;99.90;;;;;;5037343;28;20037;-66
2023/05/08 02:29:52;;;;;;;1.08;0.98;;;13.10;99.90;;;;;;5049408;28;20496;-66
2023/05/08 02:32:19;;;;;;;0.32;0.32;;;13.10;99.90;;;;;;5029622;28;20037;-66
2023/05/08 02:34:49;;;;;;;0.85;0.85;;;13.10;99.90;;;;;;5035528;28;20077;-66
2023/05/08 02:37:18;;;;;;;0.50;0.50;;;13.10;99.90;;;;;;5037225;28;20516;-67
2023/05/08 02:39:45;;;;;;;0.20;0.20;;;13.10;99.90;;;;;;5032669;28;20064;-66
2023/05/08 02:42:11;;;;;;;0.52;0.52;;;13.00;99.90;;;;;;5049640;28;20040;-66
2023/05/08 02:44:36;;;;;;;0.00;0.00;;;13.10;99.90;;;;;;5030085;28;20041;-66
2023/05/08 02:47:18;;;;;;;0.28;0.28;;;13.00;99.90;;;;;;5039635;28;20045;-66
2023/05/08 02:50:10;;;;;;;0.82;0.82;;;13.00;99.90;;;;;;5035358;28;20491;-66
2023/05/08 02:52:48;;;;;;;0.20;0.20;;;13.00;99.90;;;;;;5033146;28;20053;-66
2023/05/08 02:55:35;;;;;;;0.60;0.60;;;12.90;99.90;;;;;;5046844;28;20540;-66
2023/05/08 02:58:15;;;;;;;0.80;0.80;;;12.90;99.90;;;;;;5038901;28;20424;-66
2023/05/08 03:00:59;;;;;;;1.13;0.93;;;12.90;99.90;;;;;;5043936;28;20053;-66
2023/05/08 03:03:44;;;;;;;;;;;12.90;99.90;;;;;;5042469;28;20068;-66
2023/05/08 03:06:18;;;;;;;1.30;1.20;;;12.90;99.90;;;;;;5030237;28;20453;-66
2023/05/08 03:08:46;;;;;;;0.95;0.90;;;12.90;99.90;;;;;;5029923;28;20076;-66
2023/05/08 03:11:16;;;;;;;1.42;1.33;;;12.90;99.90;;;;;;5033644;28;20055;-66
2023/05/08 03:13:45;;;;;;;1.20;0.52;;;12.90;99.90;;;;;;5029259;28;20451;-66
2023/05/08 03:16:17;;;;;;;1.30;1.17;;;12.80;99.90;;;;;;5037756;28;20391;-66
2023/05/08 03:18:53;;;;;;;2.05;0.63;;;12.80;99.90;;;;;;5030507;28;20551;-66
2023/05/08 03:21:23;;;;;;;0.98;0.50;;;12.80;99.90;;;;;;5029406;28;20045;-66
2023/05/08 03:23:51;;;;;;;2.28;1.00;;;12.70;99.90;;;;;;5030931;28;20053;-67
2023/05/08 03:26:21;;;;;;;1.60;1.25;;;12.70;99.90;;;;;;5029844;28;20072;-66
2023/05/08 03:28:48;;;;;;;0.30;0.30;;;12.70;99.90;;;;;;5032188;28;20130;-66
2023/05/08 03:31:17;;;;;;;0.75;0.75;;;12.60;99.90;;;;;;5044386;28;20072;-67
2023/05/08 03:33:44;;;;;;;0.50;0.50;;;12.70;99.90;;;;;;5044993;28;20827;-66
2023/05/08 03:36:10;;;;;;;0.80;0.80;;;12.60;99.90;;;;;;5029301;28;20049;-66
2023/05/08 03:38:36;;;;;;;0.43;0.43;;;12.60;99.90;;;;;;5029118;28;20147;-66
2023/05/08 03:41:03;;;;;;;1.02;0.50;;;12.60;99.90;;;;;;5030072;28;20106;-66
2023/05/08 03:43:30;;;;;;;0.43;0.43;;;12.60;99.90;;;;;;5048642;28;20048;-66
2023/05/08 03:45:56;;;;;;;1.65;1.55;;;12.60;99.90;;;;;;5039537;28;20064;-66
2023/05/08 03:48:23;;;;;;;0.70;0.57;;;12.50;99.90;;;;;;5038934;28;20033;-66
2023/05/08 03:50:49;;;;;;;0.95;0.95;;;12.50;99.90;;;;;;5046914;28;20044;-66
2023/05/08 03:53:15;;;;;;;0.52;0.47;;;12.40;99.90;;;;;;5035512;28;20037;-66
2023/05/08 03:55:41;;;;;;;0.57;0.57;;;12.40;99.90;;;;;;5037585;28;20095;-66
2023/05/08 03:58:25;;;;;;;0.52;0.52;;;12.40;99.90;;;;;;5046747;28;20146;-66
2023/05/08 04:01:09;;;;;;;1.35;0.57;;;12.40;99.90;;;;;;5048020;28;20049;-66
2023/05/08 04:04:02;;;;;;;1.27;0.70;;;12.40;99.90;;;;;;5043003;28;20073;-66
2023/05/08 04:06:36;;;;;;;1.20;1.20;;;12.30;99.90;;;;;;5036163;28;20041;-66
2023/05/08 04:09:09;;;;;;;0.77;0.70;;;12.30;99.90;;;;;;5047652;28;20399;-66
2023/05/08 04:11:58;;;;;;;1.42;0.95;;;12.20;99.90;;;;;;5040543;28;20124;-67
2023/05/08 04:14:29;;;;;;;0.50;0.50;;;12.20;99.90;;;;;;5035835;28;20511;-66
2023/05/08 04:17:01;;;;;;;0.65;0.65;;;12.20;99.90;;;;;;5048508;28;20609;-66
2023/05/08 04:19:32;;;;;;;0.40;0.40;;;12.20;99.90;;;;;;5035616;28;20033;-66
2023/05/08 04:22:03;;;;;;;1.02;0.65;;;12.10;99.90;;;;;;5036207;28;20468;-67
2023/05/08 04:24:30;;;;;;;0.25;0.25;;;12.20;99.90;;;;;;5036768;28;20501;-66
2023/05/08 04:26:57;;;;;;;0.60;0.60;;;12.20;99.90;;;;;;5032377;28;20049;-66
2023/05/08 04:29:23;;;;;;;0.40;0.40;;;12.20;99.90;;;;;;5031469;28;20049;-66
2023/05/08 04:31:50;;;;;;;2.67;1.10;;;12.30;99.90;;;;;;5031686;28;20049;-66
2023/05/08 04:34:16;;;;;;;0.60;0.60;;;12.20;99.90;;;;;;5032676;28;20032;-66
2023/05/08 04:36:42;;;;;;;0.25;0.25;;;12.30;99.90;;;;;;5035309;28;20049;-66
2023/05/08 04:39:08;;;;;;;1.75;1.65;;;12.30;99.90;;;;;;5029398;28;20049;-66
2023/05/08 04:41:34;;;;;;;0.82;0.82;;;12.20;99.90;;;;;;5029180;28;20071;-66
2023/05/08 04:44:01;;;;;;;0.68;0.68;;;12.20;99.90;;;;;;5034991;28;20060;-66
2023/05/08 04:46:26;;;;;;;0.45;0.45;;;12.20;99.90;;;;;;5036995;28;20041;-66
2023/05/08 04:48:52;;;;;;;1.95;0.85;;;12.20;99.90;;;;;;5036870;28;20042;-66
2023/05/08 04:51:18;;;;;;;1.77;1.48;;;12.20;99.90;;;;;;5028474;28;20393;-66
2023/05/08 04:53:43;;;;;;;0.10;0.10;;;12.30;99.90;;;;;;5035214;28;20061;-66
2023/05/08 04:56:09;;;;;;;2.83;0.65;;;12.30;99.90;;;;;;5047613;28;20040;-66
2023/05/08 04:58:34;;;;;;;0.70;0.70;;;12.30;99.90;;;;;;5037460;28;20434;-66
2023/05/08 05:01:03;;;;;;;0.65;0.65;;;12.30;99.90;;;;;;5041877;28;20049;-66
2023/05/08 05:03:29;;;;;;;1.10;0.82;;;12.40;99.90;;;;;;5037126;28;20123;-66
2023/05/08 05:05:59;;;;;;;1.25;1.17;;;12.40;99.90;;;;;;5040902;28;20060;-66
2023/05/08 05:08:25;;;;;;;0.63;0.50;;;12.40;99.90;;;;;;5026958;28;20051;-66
2023/05/08 05:10:51;;;;;;;0.88;0.88;;;12.50;99.90;;;;;;5038796;28;20045;-66
2023/05/08 05:13:16;;;;;;;0.95;0.95;;;12.50;99.90;;;;;;5034528;28;20056;-66
2023/05/08 05:15:42;;;;;;;0.63;0.63;;;12.50;99.90;;;;;;5032950;28;20037;-66
2023/05/08 05:18:08;;;;;;;0.32;0.32;;;12.50;99.90;;;;;;5039129;28;20103;-66
2023/05/08 05:20:33;;;;;;;0.43;0.43;;;12.50;99.90;;;;;;5043408;28;20064;-66
2023/05/08 05:22:59;;;;;;;0.25;0.25;;;12.50;99.90;;;;;;5050348;28;20171;-66
2023/05/08 05:25:25;;;;;;;0.90;0.90;;;12.60;99.90;;;;;;5037777;28;20132;-66
2023/05/08 05:27:50;;;;;;;0.20;0.20;;;12.60;99.90;;;;;;5038715;28;20094;-67
2023/05/08 05:30:16;;;;;;;0.25;0.25;;;12.70;99.90;;;;;;5036834;28;20902;-66
2023/05/08 05:32:42;;;;;;;0.47;0.30;;;12.70;99.90;;;;;;5039114;28;20502;-66
2023/05/08 05:35:09;;;;;;;0.28;0.28;;;12.70;99.90;;;;;;5034929;28;20041;-66
2023/05/08 05:37:34;;;;;;;0.55;0.55;;;12.70;99.90;;;;;;5032157;28;20052;-66
2023/05/08 05:40:00;;;;;;;0.32;0.32;;;12.80;99.90;;;;;;5038556;28;20057;-66
2023/05/08 05:42:26;;;;;;;0.32;0.32;;;12.80;99.90;;;;;;5044431;28;20045;-66
2023/05/08 05:44:51;;;;;;;0.30;0.30;;;12.80;99.90;;;;;;5040259;28;20041;-65
2023/05/08 05:47:17;;;;;;;0.55;0.55;;;12.80;99.90;;;;;;5034463;28;20045;-65
2023/05/08 05:49:45;;;;;;;0.10;0.10;;;12.90;99.90;;;;;;5032850;28;20069;-65
2023/05/08 05:52:12;;;;;;;0.43;0.43;;;12.90;99.90;;;;;;5032628;28;20057;-66
2023/05/08 05:54:37;;;;;;;0.77;0.55;;;12.90;99.90;;;;;;5033283;28;20049;-65
2023/05/08 05:57:04;;;;;;;0.85;0.65;;;12.90;99.90;;;;;;5037272;28;20473;-66
2023/05/08 05:59:29;;;;;;;0.75;0.40;;;13.00;99.90;;;;;;5046935;28;20437;-66
2023/05/08 06:01:55;;;;;;;0.20;0.20;;;13.00;99.90;;;;;;5043451;28;20069;-66
2023/05/08 06:04:21;;;;;;;0.70;0.38;;;12.90;99.90;;;;;;5038263;28;20132;-66
2023/05/08 06:06:46;;;;;;;2.42;1.73;;;13.10;99.90;;;;;;5031802;28;20033;-66
2023/05/08 06:09:12;;;;;;;0.20;0.20;;;13.10;99.90;;;;;;5036577;28;20051;-66
2023/05/08 06:11:37;;;;;;;0.65;0.65;;;13.10;99.90;;;;;;5039183;28;20041;-66
2023/05/08 06:14:03;;;;;;;2.90;0.38;;;13.30;99.90;;;;;;5036083;28;20041;-66
2023/05/08 06:16:29;;;;;;;0.35;0.35;;;13.30;99.90;;;;;;5033763;28;20444;-66
2023/05/08 06:18:55;;;;;;;0.77;0.70;;;13.30;99.90;;;;;;5048967;28;20056;-65
2023/05/08 06:21:20;;;;;;;0.82;0.80;;;13.40;99.90;;;;;;5046144;28;20049;-65
2023/05/08 06:23:46;;;;;;;1.33;1.23;;;13.40;99.90;;;;;;5040812;28;20056;-65
2023/05/08 06:26:12;;;;;;;0.68;0.65;;;13.40;99.90;;;;;;5036475;28;20069;-65
2023/05/08 06:28:37;;;;;;;0.50;0.47;;;13.40;99.90;;;;;;5039468;28;20034;-64
2023/05/08 06:31:03;;;;;;;0.10;0.10;;;13.40;99.90;;;;;;5031606;28;20076;-64
2023/05/08 06:33:29;;;;;;;0.10;0.10;;;13.50;99.90;;;;;;5030395;28;20736;-65
2023/05/08 06:35:54;;;;;;;0.00;0.00;;;13.50;99.90;;;;;;5035270;28;20385;-66
2023/05/08 06:38:20;;;;;;;0.93;0.65;;;13.50;99.90;;;;;;5031114;28;20053;-66
2023/05/08 06:40:46;;;;;;;3.25;0.95;;;13.60;99.90;;;;;;5030427;28;20121;-66
2023/05/08 06:43:12;;;;;;;0.28;0.28;;;13.70;99.90;;;;;;5033906;28;20037;-66
2023/05/08 06:45:38;;;;;;;0.30;0.30;;;13.80;99.90;;;;;;5043924;28;20555;-65
2023/05/08 06:48:04;;;;;;;0.65;0.65;;;13.90;99.90;;;;;;5041087;28;20045;-65
2023/05/08 06:50:30;;;;;;;2.50;0.40;;;13.90;99.90;;;;;;5037204;28;20782;-65
2023/05/08 06:52:55;;;;;;;0.10;0.10;;;14.00;99.90;;;;;;5037296;28;20049;-65
2023/05/08 06:55:21;;;;;;;0.55;0.52;;;14.10;99.90;;;;;;5040196;28;20552;-67
2023/05/08 06:57:47;;;;;;;0.98;0.55;;;14.10;99.90;;;;;;5038621;28;20051;-65
2023/05/08 07:00:13;;;;;;;0.68;0.68;;;14.10;99.90;;;;;;5041731;28;20040;-65
2023/05/08 07:02:38;;;;;;;1.02;0.93;;;14.20;99.90;;;;;;5045820;28;20041;-68
2023/05/08 07:05:04;;;;;;;0.30;0.30;;;14.30;99.90;;;;;;5033868;28;20656;-67
2023/05/08 07:07:30;;;;;;;0.00;0.00;;;14.30;99.90;;;;;;5042419;28;20049;-67
2023/05/08 07:09:55;;;;;;;0.20;0.20;;;14.40;99.90;;;;;;5035364;28;20060;-68
2023/05/08 07:12:21;;;;;;;0.20;0.20;;;14.40;99.90;;;;;;5033892;28;20048;-68
2023/05/08 07:14:47;;;;;;;0.10;0.10;;;14.40;99.90;;;;;;5047050;28;20415;-68
2023/05/08 07:17:13;;;;;;;0.65;0.65;;;14.50;99.90;;;;;;5037613;28;20041;-68
2023/05/08 07:19:38;;;;;;;0.20;0.20;;;14.50;99.90;;;;;;5043651;28;20036;-68
2023/05/08 07:22:04;;;;;;;0.60;0.60;;;14.70;99.90;;;;;;5029390;28;20678;-66
2023/05/08 07:24:31;;;;;;;0.38;0.38;;;14.70;99.90;;;;;;5039487;28;20049;-66
2023/05/08 07:26:58;;;;;;;1.17;0.68;;;14.70;99.90;;;;;;5031064;28;20554;-65
2023/05/08 07:29:24;;;;;;;0.20;0.20;;;14.80;99.90;;;;;;5028081;28;20044;-65
2023/05/08 07:31:50;;;;;;;1.30;0.98;;;14.80;99.90;;;;;;5033324;28;20052;-65
2023/05/08 07:34:16;;;;;;;0.20;0.20;;;14.90;99.90;;;;;;5039551;28;20488;-66
2023/05/08 07:36:42;;;;;;;0.52;0.40;;;14.90;99.90;;;;;;5037247;28;20100;-65
2023/05/08 07:39:08;;;;;;;0.30;0.30;;;15.00;99.90;;;;;;5032412;28;20502;-66
2023/05/08 07:41:35;;;;;;;0.32;0.32;;;15.20;99.90;;;;;;5029224;28;20068;-65
2023/05/08 07:44:01;;;;;;;1.10;1.10;;;15.10;99.90;;;;;;5028533;28;20045;-65
2023/05/08 07:46:27;;;;;;;0.28;0.28;;;15.10;99.90;;;;;;5029760;28;20037;-65
2023/05/08 07:48:53;;;;;;;0.28;0.28;;;15.10;99.90;;;;;;5039638;28;20029;-65
2023/05/08 07:51:18;;;;;;;0.60;0.60;;;15.20;99.90;;;;;;5040762;28;20076;-65
2023/05/08 07:53:44;;;;;;;0.43;0.43;;;15.00;99.90;;;;;;5037720;28;20087;-66
2023/05/08 07:56:09;;;;;;;0.52;0.50;;;15.10;99.90;;;;;;5034126;28;20475;-65
2023/05/08 07:58:35;;;;;;;2.55;1.45;;;15.10;99.90;;;;;;5038847;28;20091;-65
2023/05/08 08:01:01;;;;;;;0.35;0.35;;;15.20;99.90;;;;;;5032929;28;20048;-65
2023/05/08 08:03:26;;;;;;;0.52;0.52;;;15.10;99.90;;;;;;5037262;28;20624;-65
2023/05/08 08:05:52;;;;;;;0.55;0.55;;;15.20;99.90;;;;;;5047118;28;20039;-65
2023/05/08 08:08:17;;;;;;;0.75;0.75;;;15.20;99.90;;;;;;5032193;28;20045;-65
2023/05/08 08:10:43;;;;;;;0.52;0.52;;;15.30;99.90;;;;;;5043154;28;21166;-65
2023/05/08 08:13:09;;;;;;;0.20;0.20;;;15.30;99.90;;;;;;5037086;28;20546;-66
2023/05/08 08:15:34;;;;;;;1.48;1.38;;;15.30;99.90;;;;;;5033301;28;20045;-66
2023/05/08 08:18:00;;;;;;;0.30;0.30;;;15.40;99.90;;;;;;5047544;28;20040;-65
2023/05/08 08:20:26;;;;;;;0.50;0.40;;;15.40;99.90;;;;;;5048121;28;20049;-65
2023/05/08 08:22:52;;;;;;;0.10;0.10;;;15.50;99.90;;;;;;5029005;28;20049;-65
2023/05/08 08:25:18;;;;;;;0.00;0.00;;;15.60;99.90;;;;;;5040947;28;20041;-66
2023/05/08 08:27:43;;;;;;;0.22;0.22;;;15.60;99.90;;;;;;5038751;28;20048;-65
2023/05/08 08:30:09;;;;;;;0.93;0.82;;;15.80;99.90;;;;;;5046475;28;20590;-65
2023/05/08 08:32:34;;;;;;;0.80;0.80;;;15.90;99.90;;;;;;5040129;28;20356;-65
2023/05/08 08:35:00;;;;;;;0.63;0.63;;;16.00;99.90;;;;;;5044885;28;20052;-65
2023/05/08 08:37:26;;;;;;;0.10;0.10;;;16.00;99.90;;;;;;5036774;28;20038;-65
2023/05/08 08:39:52;;;;;;;0.10;0.05;;;16.10;99.90;;;;;;5030938;28;20045;-65
2023/05/08 08:42:17;;;;;;;0.20;0.20;;;16.20;99.90;;;;;;5036232;28;20052;-65
2023/05/08 08:44:43;;;;;;;0.20;0.20;;;16.20;99.90;;;;;;5035734;28;20041;-65
2023/05/08 08:47:10;;;;;;;1.95;0.80;;;16.20;99.90;;;;;;5028659;28;20042;-65
2023/05/08 08:49:45;;;;;;;0.90;0.80;;;16.30;99.90;;;;;;5033259;28;20049;-65
2023/05/08 08:52:45;;;;;;;0.60;0.60;;;16.20;99.90;;;;;;5034675;28;20054;-66
2023/05/08 08:55:15;;;;;;;0.73;0.73;;;16.30;99.90;;;;;;5046220;28;20057;-65
2023/05/08 08:58:08;;;;;;;0.43;0.43;;;16.70;99.90;;;;;;5032510;28;20120;-64
2023/05/08 09:00:36;;;;;;;0.97;0.93;;;17.20;99.90;;;;;;5033451;28;20053;-65
2023/05/08 09:03:04;;;;;;;0.43;0.43;;;17.80;99.90;;;;;;5026866;28;20084;-65
2023/05/08 09:05:31;;;;;;;0.40;0.40;;;18.30;99.90;;;;;;5027075;28;20045;-65
2023/05/08 09:07:58;;;;;;;0.77;0.77;;;18.80;99.90;;;;;;5040065;28;20056;-65
2023/05/08 09:26:56;;;;;;;0.50;0.50;;;19.90;99.90;;;;;;5003359;28;20137;-63
2023/05/08 09:29:22;;;;;;;3.30;0.68;;;19.70;99.90;;;;;;5011720;28;20060;-64
2023/05/08 09:31:49;;;;;;;0.00;0.00;;;19.30;99.90;;;;;;5007417;28;20072;-64
2023/05/08 09:34:29;;;;;;;1.02;0.60;;;19.10;99.90;;;;;;5008516;28;20044;-63
2023/05/08 09:37:09;;;;;;;0.10;0.10;;;19.30;99.90;;;;;;5012953;28;20054;-63
2023/05/08 09:39:35;;;;;;;0.40;0.40;;;19.50;99.90;;;;;;4996984;28;20065;-64
2023/05/08 09:42:02;;;;;;;0.52;0.52;;;19.80;99.90;;;;;;5002634;28;20034;-64
2023/05/08 09:44:41;;;;;;;2.00;0.90;;;20.10;99.90;;;;;;4997062;28;20307;-64
2023/05/08 09:47:19;;;;;;;0.65;0.65;;;20.40;99.90;;;;;;5006306;28;20054;-64
2023/05/08 09:50:08;;;;;;;1.13;0.93;;;20.70;99.90;;;;;;5000781;28;20045;-64
2023/05/08 09:52:36;;;;;;;0.40;0.40;;;21.00;99.90;;;;;;4989810;28;20043;-64
2023/05/08 09:55:07;;;;;;;0.20;0.20;;;21.20;99.90;;;;;;4998613;28;20054;-64
2023/05/08 09:57:37;;;;;;;0.68;0.60;;;21.10;99.90;;;;;;4994407;28;20050;-64
2023/05/08 10:00:02;;;;;;;1.13;1.13;;;21.30;99.90;;;;;;5004170;28;20038;-64
2023/05/08 10:02:28;;;;;;;1.08;0.98;;;21.50;99.90;;;;;;5005777;28;20054;-64
2023/05/08 10:04:54;;;;;;;1.35;1.15;;;21.60;99.90;;;;;;4993969;28;20109;-64
2023/05/08 10:07:29;;;;;;;5.57;1.02;;;21.50;99.90;;;;;;5006293;28;20113;-64
2023/05/08 10:10:03;;;;;;;1.73;1.63;;;21.70;99.90;;;;;;5008753;28;20062;-64
2023/05/08 10:12:29;;;;;;;0.80;0.80;;;21.90;99.90;;;;;;4994222;28;20050;-64
2023/05/08 10:14:55;;;;;;;0.38;0.32;;;22.00;99.90;;;;;;4998909;28;20374;-64
2023/05/08 10:17:39;;;;;;;1.08;0.75;;;22.00;99.90;;;;;;4994115;28;20145;-64
2023/05/08 10:20:06;;;;;;;1.27;0.40;;;22.00;99.90;;;;;;5017386;28;20041;-62
2023/05/08 10:22:36;;;;;;;0.93;0.75;;;22.00;99.90;;;;;;5017937;28;20132;-64
2023/05/08 10:25:03;;;;;;;0.30;0.15;;;21.90;99.90;;;;;;4997439;28;20513;-64
2023/05/08 10:27:37;;;;;;;0.50;0.50;;;21.80;99.90;;;;;;5003820;28;20056;-64
2023/05/08 10:30:04;;;;;;;2.17;1.65;;;21.70;99.90;;;;;;5006641;28;20594;-64
2023/05/08 10:32:42;;;;;;;6.72;1.52;;;21.70;99.90;;;;;;5012244;28;20041;-63
2023/05/08 10:35:09;;;;;;;0.88;0.73;;;21.70;99.90;;;;;;5009798;28;20048;-64
2023/05/08 10:37:37;;;;;;;4.25;1.08;;;21.60;99.90;;;;;;4999669;28;20113;-64
2023/05/08 10:40:04;;;;;;;1.23;1.13;;;21.60;99.90;;;;;;5009342;28;20038;-64
2023/05/08 10:42:32;;;;;;;2.90;1.08;;;21.50;99.90;;;;;;5001205;28;20065;-65
2023/05/08 10:44:58;;;;;;;0.52;0.52;;;21.70;99.90;;;;;;5000520;28;20038;-62
2023/05/08 10:48:07;;;;;;;1.67;1.17;;;21.60;99.90;;;;;;4999167;28;20497;-62
2023/05/08 10:50:53;;;;;;;0.38;0.38;;;21.70;99.90;;;;;;4913660;29;20047;-64
2023/05/08 10:53:27;;;;;;;0.88;0.82;;;21.40;99.90;;;;;;4912691;29;20107;-64
2023/05/08 10:55:54;;;;;;;3.03;0.75;;;21.50;99.90;;;;;;4975811;28;20054;-63
2023/05/08 10:58:34;;;;;;;0.65;0.65;;;21.60;99.90;;;;;;4998230;28;20390;-63
2023/05/08 11:01:02;;;;;;;1.52;0.70;;;21.70;99.90;;;;;;5011141;28;20041;-64
2023/05/08 11:03:29;;;;;;;0.45;0.35;;;21.50;99.90;;;;;;5006590;28;20051;-64
2023/05/08 11:05:56;;;;;;;2.20;0.95;;;21.40;99.90;;;;;;5007878;28;20045;-63
2023/05/08 11:08:24;;;;;;;0.10;0.10;;;21.40;99.90;;;;;;5002979;28;20073;-64
2023/05/08 11:10:59;;;;;;;21.73;0.95;;;21.50;99.90;;;;;;5004917;28;20041;-64
2023/05/08 11:13:41;;;;;;;0.20;0.20;;;21.60;99.90;;;;;;5004552;28;20046;-64
2023/05/08 11:16:09;;;;;;;2.53;0.80;;;21.40;99.90;;;;;;4987628;28;20045;-64
2023/05/08 11:18:35;;;;;;;1.40;1.25;;;21.40;99.90;;;;;;4998413;28;20056;-64
2023/05/08 11:21:05;;;;;;;3.92;1.40;;;21.40;99.90;;;;;;4995393;28;20049;-62
2023/05/08 11:23:32;;;;;;;0.20;0.20;;;21.30;99.90;;;;;;5005284;28;20149;-65
2023/05/08 11:26:00;;;;;;;4.22;1.00;;;21.40;99.90;;;;;;5002552;28;20050;-65
2023/05/08 11:28:29;;;;;;;0.73;0.73;;;21.30;99.90;;;;;;4992615;28;20124;-65
2023/05/08 11:30:55;;;;;;;2.95;1.45;;;21.60;99.90;;;;;;5004213;28;20125;-64
2023/05/08 11:33:22;;;;;;;1.05;1.00;;;21.50;99.90;;;;;;5004909;28;21625;-64
2023/05/08 11:35:55;;;;;;;1.25;0.98;;;21.30;99.90;;;;;;5008333;28;20046;-64
2023/05/08 11:38:35;;;;;;;0.47;0.47;;;21.20;99.90;;;;;;5013334;28;20042;-64
2023/05/08 11:41:01;;;;;;;0.28;0.28;;;21.00;99.90;;;;;;5002558;28;20034;-64
2023/05/08 11:43:35;;;;;;;6.20;1.50;;;20.90;99.90;;;;;;5007435;28;20049;-64
2023/05/08 11:46:01;;;;;;;;;;;20.80;99.90;;;;;;5014980;28;20501;-64
2023/05/08 11:48:26;;;;;;;1.13;1.08;;;20.90;99.90;;;;;;5012159;28;19921;-64
2023/05/08 11:50:52;;;;;;;1.42;1.13;;;20.90;99.90;;;;;;4998885;28;20125;-64
2023/05/08 11:53:18;;;;;;;2.30;1.30;;;20.90;99.90;;;;;;5011085;28;20128;-64
2023/05/08 11:55:47;;;;;;;4.15;1.38;;;20.80;99.90;;;;;;5009029;28;20042;-64
2023/05/08 11:58:17;;;;;;;0.35;0.35;;;20.80;99.90;;;;;;5002994;28;20049;-64
2023/05/08 12:00:44;;;;;;;0.55;0.55;;;20.80;99.90;;;;;;4985884;28;20639;-63
2023/05/08 12:03:14;;;;;;;2.20;0.85;;;20.90;99.90;;;;;;5008710;28;20508;-63
2023/05/08 12:05:40;;;;;;;1.38;1.08;;;21.00;99.90;;;;;;5009744;28;20516;-64
2023/05/08 12:08:07;;;;;;;0.82;0.50;;;21.00;99.90;;;;;;5000369;28;20035;-65
2023/05/08 12:10:38;;;;;;;0.28;0.28;;;20.90;99.90;;;;;;5004986;28;20042;-64
2023/05/08 12:13:18;;;;;;;0.25;0.25;;;21.00;99.90;;;;;;5001377;28;20042;-65
2023/05/08 12:15:48;;;;;;;0.77;0.77;;;21.00;99.90;;;;;;5001002;28;20073;-65
2023/05/08 12:18:15;;;;;;;0.88;0.85;;;20.90;99.90;;;;;;5011421;28;20049;-64
2023/05/08 12:20:40;;;;;;;0.28;0.28;;;21.20;99.90;;;;;;5008017;28;20109;-64
2023/05/08 12:23:07;;;;;;;3.05;1.15;;;21.30;99.90;;;;;;5008786;28;20531;-65
2023/05/08 12:25:33;;;;;;;1.10;1.00;;;21.20;99.90;;;;;;5005632;28;20069;-64
2023/05/08 12:27:59;;;;;;;5.50;1.27;;;21.30;99.90;;;;;;5009936;28;20413;-65
2023/05/08 12:30:25;;;;;;;1.00;0.88;;;21.30;99.90;;;;;;4989411;28;20081;-65
2023/05/08 12:32:51;;;;;;;0.20;0.20;;;21.30;99.90;;;;;;4980506;28;20082;-65
2023/05/08 12:35:17;;;;;;;0.88;0.88;;;21.40;99.90;;;;;;5012172;28;20080;-65
2023/05/08 12:37:44;;;;;;;0.77;0.77;;;21.40;99.90;;;;;;4998729;28;20049;-65
2023/05/08 12:40:27;;;;;;;1.15;1.05;;;21.30;99.90;;;;;;5006419;28;20233;-65
2023/05/08 12:42:53;;;;;;;0.85;0.85;;;21.10;99.90;;;;;;5002549;28;20041;-65
2023/05/08 12:45:27;;;;;;;0.75;0.73;;;21.00;99.90;;;;;;4991891;28;20042;-65
2023/05/08 12:47:57;;;;;;;2.58;0.90;;;21.00;99.90;;;;;;5009693;28;20050;-65
2023/05/08 12:50:24;;;;;;;5.05;3.15;;;21.20;99.90;;;;;;4999539;28;20402;-65
2023/05/08 12:52:51;;;;;;;0.98;0.98;;;21.20;99.90;;;;;;5011421;28;20488;-65
2023/05/08 12:55:24;;;;;;;0.50;0.50;;;21.30;99.90;;;;;;4991403;28;20049;-65
2023/05/08 12:58:16;;;;;;;0.50;0.50;;;21.30;99.90;;;;;;5009003;28;20164;-65
2023/05/08 13:00:46;;;;;;;0.20;0.20;;;21.30;99.90;;;;;;4998632;28;20128;-65
2023/05/08 13:03:20;;;;;;;1.50;1.30;;;22.00;99.90;;;;;;5004897;28;20038;-65
2023/05/08 13:05:46;;;;;;;0.95;0.90;;;22.20;99.90;;;;;;5012853;28;20046;-65
2023/05/08 13:08:11;;;;;;;0.68;0.68;;;22.00;99.90;;;;;;4999759;28;20042;-65
2023/05/08 13:10:54;;;;;;;1.98;1.70;;;21.70;99.90;;;;;;5009807;28;20034;-65
2023/05/08 13:13:27;;;;;;;4.47;2.22;;;21.40;99.90;;;;;;5010662;28;21070;-64
2023/05/08 13:15:54;;;;;;;8.82;1.25;;;21.30;99.90;;;;;;4998921;28;20564;-65